Time;durP1;ratioP1;P1;durP2;ratioP2;P2;SDS_P1;SDS_P2;PMS_P1;PMS_P2;Temp;Humidity;BMP_temperature;BMP_pressure;BME280_temperature;BME280_humidity;BME280_pressure;Samples;Min_cycle;Max_cycle;Signal;HPM_P1;HPM_P2
2022/10/16 00:02:36;;;;;;;11.40;9.40;;;;;;;14.48;74.47;100194.33;126908;1276;108160;-69
2022/10/16 00:05:44;;;;;;;13.00;9.30;;;;;;;14.49;74.34;100193.83;126799;1286;108024;-69
2022/10/16 00:08:50;;;;;;;12.70;9.60;;;;;;;14.49;74.21;100195.19;126875;1278;106745;-68
2022/10/16 00:11:55;;;;;;;13.30;10.00;;;;;;;14.48;74.35;100195.20;126808;1286;110361;-69
2022/10/16 00:15:01;;;;;;;12.10;9.60;;;;;;;14.46;74.26;100200.58;126814;1279;107872;-68
2022/10/16 00:18:07;;;;;;;15.00;10.10;;;;;;;14.43;74.27;100195.33;126758;1289;108436;-68
2022/10/16 00:21:15;;;;;;;13.60;9.20;;;;;;;14.40;74.22;100192.04;126747;1280;108102;-68
2022/10/16 00:24:20;;;;;;;14.30;8.30;;;;;;;14.38;74.24;100194.61;126822;1290;106786;-69
2022/10/16 00:27:25;;;;;;;12.80;9.10;;;;;;;14.38;74.23;100199.07;126765;1279;107899;-68
2022/10/16 00:30:31;;;;;;;16.20;10.30;;;;;;;14.40;74.38;100202.57;126792;1284;106910;-68
2022/10/16 00:33:37;;;;;;;16.10;10.60;;;;;;;14.43;74.38;100207.21;126818;1280;106250;-69
2022/10/16 00:36:43;;;;;;;13.80;10.30;;;;;;;14.44;74.27;100211.91;126806;1279;110536;-68
2022/10/16 00:39:48;;;;;;;13.70;10.20;;;;;;;14.45;74.37;100213.08;126784;1280;109104;-68
2022/10/16 00:42:53;;;;;;;12.50;10.20;;;;;;;14.45;74.34;100212.95;126824;1279;108074;-68
2022/10/16 00:45:59;;;;;;;16.10;11.20;;;;;;;14.43;74.32;100209.77;126728;1279;108258;-68
2022/10/16 00:49:09;;;;;;;13.70;10.50;;;;;;;14.40;74.40;100205.02;126765;1292;109019;-72
2022/10/16 00:52:15;;;;;;;11.70;9.30;;;;;;;14.37;74.40;100209.50;126801;1280;107549;-69
2022/10/16 00:55:22;;;;;;;13.70;10.10;;;;;;;14.34;74.33;100209.25;126825;1285;107711;-69
2022/10/16 00:58:27;;;;;;;15.80;10.50;;;;;;;14.34;74.48;100215.89;126848;1278;107613;-70
2022/10/16 01:01:32;;;;;;;14.90;10.60;;;;;;;14.37;74.47;100214.58;126764;1272;108148;-68
2022/10/16 01:04:41;;;;;;;14.10;10.40;;;;;;;14.39;74.46;100214.09;126766;1279;108135;-69
2022/10/16 01:07:54;;;;;;;14.00;10.80;;;;;;;14.41;74.44;100217.48;126798;1286;107550;-68
2022/10/16 01:11:07;;;;;;;13.70;10.50;;;;;;;14.41;74.27;100222.80;126863;1278;108102;-68
2022/10/16 01:14:20;;;;;;;14.40;10.60;;;;;;;14.41;74.32;100233.08;126828;1286;106901;-68
2022/10/16 01:17:36;;;;;;;14.80;10.70;;;;;;;14.38;74.56;100233.73;126780;1285;108268;-69
2022/10/16 01:20:48;;;;;;;14.00;10.60;;;;;;;14.36;74.43;100232.77;126872;1289;109549;-69
2022/10/16 01:24:03;;;;;;;11.70;8.90;;;;;;;14.32;74.64;100232.29;126727;1280;107988;-68
2022/10/16 01:27:13;;;;;;;13.50;10.10;;;;;;;14.28;74.77;100235.11;126784;1278;107436;-68
2022/10/16 01:30:23;;;;;;;14.80;9.90;;;;;;;14.27;74.72;100230.51;126829;1279;107522;-69
2022/10/16 01:33:35;;;;;;;15.20;10.30;;;;;;;14.28;74.75;100227.73;126711;1278;108187;-68
2022/10/16 01:36:41;;;;;;;;;;;;;;;14.28;74.70;100226.48;126830;1278;108120;-68
2022/10/16 01:39:50;;;;;;;15.30;11.20;;;;;;;14.28;74.68;100223.98;126885;1279;109387;-69
2022/10/16 01:43:01;;;;;;;16.10;10.10;;;;;;;14.26;74.80;100224.02;126831;1280;108012;-69
2022/10/16 01:46:08;;;;;;;13.90;10.50;;;;;;;14.24;74.99;100223.72;126829;1286;107102;-68
2022/10/16 01:49:15;;;;;;;13.50;10.90;;;;;;;14.19;74.76;100221.77;126803;1293;107402;-70
2022/10/16 01:52:26;;;;;;;14.60;10.60;;;;;;;14.12;74.79;100221.34;126766;1283;107317;-71
2022/10/16 01:55:34;;;;;;;14.80;9.40;;;;;;;14.00;74.91;100224.88;126757;1279;107518;-68
2022/10/16 01:58:47;;;;;;;13.90;10.50;;;;;;;13.91;74.95;100224.08;126565;1279;108506;-69
2022/10/16 02:01:57;;;;;;;14.00;10.60;;;;;;;13.87;75.24;100224.23;126775;1280;106540;-69
2022/10/16 02:05:09;;;;;;;17.50;10.60;;;;;;;13.85;75.26;100233.90;126749;1278;107499;-69
2022/10/16 02:08:15;;;;;;;15.50;11.20;;;;;;;13.81;75.15;100240.25;126786;1279;110432;-68
2022/10/16 02:11:20;;;;;;;14.50;11.40;;;;;;;13.76;75.27;100239.54;126783;1279;108700;-70
2022/10/16 02:14:27;;;;;;;16.10;11.40;;;;;;;13.69;75.39;100244.34;126804;1279;107965;-68
2022/10/16 02:17:32;;;;;;;15.30;11.20;;;;;;;13.59;75.39;100250.66;126804;1279;110504;-68
2022/10/16 02:20:46;;;;;;;14.90;11.20;;;;;;;13.49;75.40;100252.13;126840;1272;107540;-68
2022/10/16 02:23:58;;;;;;;16.30;10.20;;;;;;;13.39;75.63;100253.81;126801;1288;108120;-68
2022/10/16 02:27:10;;;;;;;13.20;10.00;;;;;;;13.30;75.56;100254.38;126803;1279;108142;-68
2022/10/16 02:30:24;;;;;;;12.50;10.20;;;;;;;13.24;75.72;100256.33;126750;1286;108109;-68
2022/10/16 02:33:32;;;;;;;13.40;10.40;;;;;;;13.19;75.96;100255.59;126735;1279;107355;-68
2022/10/16 02:36:39;;;;;;;15.40;11.50;;;;;;;13.15;75.98;100251.73;126815;1279;107506;-68
2022/10/16 02:39:44;;;;;;;15.20;10.90;;;;;;;13.11;75.83;100254.14;126765;1279;107565;-68
2022/10/16 02:42:53;;;;;;;16.50;12.10;;;;;;;13.04;76.04;100259.70;126720;1280;108042;-68
2022/10/16 02:45:59;;;;;;;15.10;11.40;;;;;;;12.97;76.01;100264.10;126890;1280;107523;-69
2022/10/16 02:49:04;;;;;;;14.80;11.70;;;;;;;12.88;76.01;100265.73;126708;1277;107864;-69
2022/10/16 02:52:09;;;;;;;14.60;10.50;;;;;;;12.77;76.15;100269.08;126744;1279;108238;-68
2022/10/16 02:55:15;;;;;;;12.00;9.00;;;;;;;12.69;76.18;100268.01;126644;1279;108407;-69
2022/10/16 02:58:21;;;;;;;15.90;11.30;;;;;;;12.63;76.20;100269.59;126824;1297;107060;-69
2022/10/16 03:01:26;;;;;;;17.90;11.70;;;;;;;12.60;76.37;100268.87;126742;1278;108096;-69
2022/10/16 03:04:32;;;;;;;14.50;11.40;;;;;;;12.54;76.43;100272.61;126705;1286;108289;-69
2022/10/16 03:07:37;;;;;;;15.50;11.40;;;;;;;12.52;76.46;100276.09;126818;1279;107513;-70
2022/10/16 03:10:42;;;;;;;17.30;12.00;;;;;;;12.47;76.67;100275.89;126786;1278;108023;-69
2022/10/16 03:13:48;;;;;;;17.50;12.20;;;;;;;12.41;76.51;100273.33;126699;1279;108016;-68
2022/10/16 03:16:53;;;;;;;15.50;11.20;;;;;;;12.31;76.63;100270.27;126842;1279;107854;-68
2022/10/16 03:19:58;;;;;;;14.80;10.50;;;;;;;12.24;76.60;100265.19;126717;1280;108041;-68
2022/10/16 03:23:04;;;;;;;13.70;10.10;;;;;;;12.17;76.80;100273.51;126724;1278;106461;-69
2022/10/16 03:26:09;;;;;;;16.20;11.00;;;;;;;12.12;76.88;100281.19;126731;1272;108138;-69
2022/10/16 03:29:14;;;;;;;16.60;11.00;;;;;;;12.07;76.81;100281.23;126840;1278;108105;-69
2022/10/16 03:32:21;;;;;;;15.60;11.80;;;;;;;12.01;76.99;100279.17;126806;1286;108139;-68
2022/10/16 03:35:27;;;;;;;17.60;12.30;;;;;;;11.99;77.24;100284.95;126808;1278;107308;-68
2022/10/16 03:38:32;;;;;;;16.60;12.60;;;;;;;11.95;77.42;100284.59;126774;1280;108190;-69
2022/10/16 03:41:38;;;;;;;17.60;12.50;;;;;;;11.91;77.36;100291.81;126754;1278;108042;-69
2022/10/16 03:44:43;;;;;;;16.60;11.60;;;;;;;11.86;77.66;100293.89;126786;1278;107671;-68
2022/10/16 03:47:49;;;;;;;13.40;10.10;;;;;;;11.83;77.98;100297.61;126779;1272;107105;-68
2022/10/16 03:50:54;;;;;;;17.60;12.00;;;;;;;11.84;77.99;100301.66;126787;1279;108105;-67
2022/10/16 03:54:00;;;;;;;19.40;14.20;;;;;;;11.86;78.12;100300.30;126717;1279;108219;-68
2022/10/16 03:57:05;;;;;;;19.00;13.70;;;;;;;11.89;78.09;100298.60;126766;1279;106488;-68
2022/10/16 04:00:13;;;;;;;15.80;12.50;;;;;;;11.89;78.37;100300.21;126755;1272;108162;-70
2022/10/16 04:03:18;;;;;;;20.40;12.80;;;;;;;11.88;78.30;100296.02;126831;1280;106046;-68
2022/10/16 04:06:24;;;;;;;17.10;12.40;;;;;;;11.87;78.49;100301.34;126699;1279;107970;-68
2022/10/16 04:09:29;;;;;;;15.80;11.10;;;;;;;11.85;78.78;100305.86;126745;1279;108164;-67
2022/10/16 04:12:35;;;;;;;17.30;12.20;;;;;;;11.84;78.88;100301.08;126793;1278;108123;-68
2022/10/16 04:15:40;;;;;;;19.90;13.00;;;;;;;11.86;79.01;100301.61;126803;1286;108120;-67
2022/10/16 04:18:45;;;;;;;18.60;12.70;;;;;;;11.88;79.13;100306.59;126758;1272;107877;-68
2022/10/16 04:21:51;;;;;;;19.40;13.40;;;;;;;11.90;79.23;100301.95;126776;1286;108217;-69
2022/10/16 04:24:56;;;;;;;19.60;12.10;;;;;;;11.88;79.57;100296.05;126748;1278;110252;-68
2022/10/16 04:28:01;;;;;;;18.50;11.70;;;;;;;11.87;79.40;100300.58;126792;1279;108314;-68
2022/10/16 04:31:08;;;;;;;16.00;11.70;;;;;;;11.88;79.62;100305.27;126759;1271;108154;-68
2022/10/16 04:34:13;;;;;;;16.50;12.30;;;;;;;11.93;79.83;100306.73;126722;1286;106690;-68
2022/10/16 04:37:18;;;;;;;19.80;13.50;;;;;;;12.00;80.03;100307.27;126784;1270;107266;-69
2022/10/16 04:40:24;;;;;;;59.70;37.50;;;;;;;12.06;80.04;100312.39;126847;1286;107722;-68
2022/10/16 04:43:29;;;;;;;42.20;26.40;;;;;;;12.09;79.97;100319.69;126683;1278;108671;-68
2022/10/16 04:46:35;;;;;;;22.60;15.40;;;;;;;12.11;80.23;100322.00;126823;1279;107989;-68
2022/10/16 04:49:40;;;;;;;19.90;13.90;;;;;;;12.16;80.30;100323.92;126783;1286;108134;-68
2022/10/16 04:52:45;;;;;;;18.70;13.10;;;;;;;12.23;80.37;100320.20;126854;1286;108148;-69
2022/10/16 04:55:51;;;;;;;19.00;13.80;;;;;;;12.30;80.25;100318.09;126745;1286;108145;-68
2022/10/16 04:58:57;;;;;;;19.00;13.90;;;;;;;12.36;80.32;100318.47;126809;1286;108217;-68
2022/10/16 05:02:02;;;;;;;16.60;11.80;;;;;;;12.39;80.44;100322.59;126766;1279;108107;-68
2022/10/16 05:05:09;;;;;;;14.20;10.90;;;;;;;12.42;80.74;100327.14;126716;1279;108058;-69
2022/10/16 05:08:16;;;;;;;16.50;12.20;;;;;;;12.47;80.87;100328.88;126939;1279;106598;-69
2022/10/16 05:11:21;;;;;;;17.80;12.60;;;;;;;12.55;80.91;100320.90;126826;1279;107496;-68
2022/10/16 05:14:27;;;;;;;18.10;12.60;;;;;;;12.64;80.88;100317.44;126741;1272;107984;-68
2022/10/16 05:17:32;;;;;;;21.80;13.10;;;;;;;12.70;80.86;100318.01;126722;1279;107917;-66
2022/10/16 05:20:37;;;;;;;14.60;10.40;;;;;;;12.75;80.91;100319.61;127009;1279;107473;-67
2022/10/16 05:23:43;;;;;;;16.80;10.70;;;;;;;12.79;80.99;100323.13;126717;1278;106549;-67
2022/10/16 05:26:48;;;;;;;18.00;11.80;;;;;;;12.86;80.93;100326.98;126891;1279;107139;-66
2022/10/16 05:29:53;;;;;;;15.80;11.70;;;;;;;12.93;81.14;100325.33;126895;1279;108123;-66
2022/10/16 05:32:59;;;;;;;15.30;12.30;;;;;;;13.02;81.08;100329.64;126824;1286;108163;-66
2022/10/16 05:36:07;;;;;;;17.70;12.50;;;;;;;13.07;81.15;100328.70;126823;1279;107945;-67
2022/10/16 05:39:12;;;;;;;15.60;11.20;;;;;;;13.10;81.16;100333.94;126846;1278;107504;-66
2022/10/16 05:42:18;;;;;;;16.30;10.70;;;;;;;13.13;81.23;100334.09;126738;1278;108041;-67
2022/10/16 05:45:23;;;;;;;16.10;11.70;;;;;;;13.20;81.21;100336.27;126746;1286;108155;-67
2022/10/16 05:48:29;;;;;;;14.30;11.70;;;;;;;13.26;81.25;100342.50;126814;1279;107562;-67
2022/10/16 05:51:34;;;;;;;16.20;12.30;;;;;;;13.32;81.23;100339.74;126744;1279;108130;-67
2022/10/16 05:54:40;;;;;;;20.90;13.50;;;;;;;13.37;81.12;100340.10;126806;1279;107920;-66
2022/10/16 05:57:45;;;;;;;15.30;10.90;;;;;;;13.40;81.13;100348.73;126743;1279;108111;-69
2022/10/16 06:00:57;;;;;;;27.90;17.00;;;;;;;13.42;81.21;100351.52;126751;1279;108086;-67
2022/10/16 06:04:03;;;;;;;17.70;12.10;;;;;;;13.47;81.35;100351.19;126845;1278;107364;-67
2022/10/16 06:07:08;;;;;;;18.00;13.10;;;;;;;13.52;81.27;100354.29;126796;1278;107856;-66
2022/10/16 06:10:14;;;;;;;19.70;12.80;;;;;;;13.59;81.39;100350.70;126777;1278;107342;-67
2022/10/16 06:13:19;;;;;;;17.50;12.60;;;;;;;13.67;81.30;100346.04;126934;1278;107459;-68
2022/10/16 06:16:26;;;;;;;16.20;13.10;;;;;;;13.73;81.24;100339.70;126929;1279;110378;-66
2022/10/16 06:19:32;;;;;;;21.00;15.30;;;;;;;13.76;81.28;100358.67;126854;1278;105741;-66
2022/10/16 06:22:37;;;;;;;18.80;12.20;;;;;;;13.79;81.37;100368.16;126828;1279;108139;-68
2022/10/16 06:25:43;;;;;;;16.10;12.10;;;;;;;13.84;81.32;100375.69;127051;1278;107318;-66
2022/10/16 06:28:48;;;;;;;15.20;11.50;;;;;;;13.91;81.45;100370.54;126964;1279;108253;-66
2022/10/16 06:31:53;;;;;;;16.20;12.60;;;;;;;14.00;81.20;100376.76;126784;1272;107557;-67
2022/10/16 06:34:59;;;;;;;16.10;12.30;;;;;;;14.11;81.14;100375.69;126744;1278;107960;-67
2022/10/16 06:38:04;;;;;;;15.60;11.70;;;;;;;14.22;81.08;100375.54;126905;1279;108089;-67
2022/10/16 06:41:12;;;;;;;13.60;10.40;;;;;;;14.32;81.15;100384.42;126746;1271;107313;-67
2022/10/16 06:44:17;;;;;;;15.70;10.90;;;;;;;14.46;81.23;100381.87;126843;1279;108134;-70
2022/10/16 06:47:23;;;;;;;15.70;10.90;;;;;;;14.58;81.03;100387.91;126852;1272;107838;-67
2022/10/16 06:50:28;;;;;;;15.10;11.30;;;;;;;14.73;80.93;100385.18;126937;1278;107869;-66
2022/10/16 06:53:36;;;;;;;34.90;22.30;;;;;;;14.83;80.74;100380.42;126896;1279;108077;-68
2022/10/16 06:56:41;;;;;;;18.20;12.40;;;;;;;14.92;80.51;100383.41;126889;1272;108042;-69
2022/10/16 06:59:46;;;;;;;16.70;11.70;;;;;;;15.03;80.50;100389.77;126822;1272;107980;-68
2022/10/16 07:02:52;;;;;;;15.80;11.90;;;;;;;15.14;80.51;100386.15;126798;1278;107030;-66
2022/10/16 07:05:57;;;;;;;13.10;10.40;;;;;;;15.18;80.16;100394.39;126822;1278;108142;-67
2022/10/16 07:09:06;;;;;;;14.50;10.50;;;;;;;15.22;80.30;100399.73;126829;1278;106174;-67
2022/10/16 07:12:12;;;;;;;14.20;11.00;;;;;;;15.31;80.18;100403.86;126801;1279;108169;-69
2022/10/16 07:15:17;;;;;;;15.60;10.90;;;;;;;15.47;80.13;100413.10;126679;1279;107891;-66
2022/10/16 07:18:26;;;;;;;14.40;10.90;;;;;;;15.62;79.72;100414.77;126673;1278;108039;-68
2022/10/16 07:21:35;;;;;;;15.90;12.20;;;;;;;15.75;79.71;100418.92;126815;1279;108127;-67
2022/10/16 07:24:40;;;;;;;14.00;11.20;;;;;;;15.85;79.54;100420.45;126826;1279;107433;-69
2022/10/16 07:27:46;;;;;;;15.20;11.50;;;;;;;15.94;79.62;100416.29;126895;1278;108087;-68
2022/10/16 07:30:51;;;;;;;28.30;23.60;;;;;;;16.01;79.39;100414.19;126892;1286;107512;-73
2022/10/16 07:33:58;;;;;;;27.00;20.30;;;;;;;16.05;79.35;100425.39;127011;1271;107263;-70
2022/10/16 07:37:04;;;;;;;22.80;18.50;;;;;;;16.11;79.28;100429.56;126780;1272;108157;-72
2022/10/16 07:40:11;;;;;;;16.20;14.00;;;;;;;16.24;79.23;100430.96;126966;1279;107551;-69
2022/10/16 07:43:17;;;;;;;14.50;11.70;;;;;;;16.39;78.96;100438.00;126824;1272;107490;-69
2022/10/16 07:46:24;;;;;;;14.10;11.00;;;;;;;16.60;78.92;100442.62;127052;1278;108277;-69
2022/10/16 07:49:29;;;;;;;22.50;17.00;;;;;;;16.78;78.70;100441.11;126852;1279;106930;-69
2022/10/16 07:52:34;;;;;;;18.50;15.70;;;;;;;16.92;78.36;100433.84;126802;1271;107151;-69
2022/10/16 07:55:40;;;;;;;14.40;12.20;;;;;;;17.02;78.36;100431.39;126786;1278;108389;-70
2022/10/16 07:58:46;;;;;;;20.60;18.00;;;;;;;17.06;77.97;100433.94;126787;1278;107344;-69
2022/10/16 08:01:52;;;;;;;14.90;12.00;;;;;;;17.12;78.07;100435.58;126750;1278;107491;-68
2022/10/16 08:04:57;;;;;;;12.90;10.10;;;;;;;17.20;78.14;100431.33;126803;1279;108105;-70
2022/10/16 08:08:03;;;;;;;13.70;10.30;;;;;;;17.28;77.91;100433.52;126862;1286;107296;-71
2022/10/16 08:11:08;;;;;;;13.30;10.60;;;;;;;17.37;77.65;100437.15;126947;1272;108042;-67
2022/10/16 08:14:14;;;;;;;19.00;16.50;;;;;;;17.41;77.62;100438.90;126857;1272;108125;-68
2022/10/16 08:17:19;;;;;;;17.20;12.70;;;;;;;17.48;77.72;100438.42;126798;1286;108137;-68
2022/10/16 08:20:25;;;;;;;14.50;11.10;;;;;;;17.55;77.39;100439.06;126816;1279;107495;-67
2022/10/16 08:23:31;;;;;;;15.30;12.50;;;;;;;17.58;77.25;100443.19;126823;1278;108084;-68
2022/10/16 08:26:36;;;;;;;15.90;12.50;;;;;;;17.60;77.21;100444.41;126755;1275;108118;-68
2022/10/16 08:29:41;;;;;;;13.70;11.00;;;;;;;17.62;77.16;100446.88;126958;1278;108082;-66
2022/10/16 08:32:47;;;;;;;20.30;14.10;;;;;;;17.63;77.08;100454.08;126778;1286;108009;-80
2022/10/16 08:35:56;;;;;;;14.30;11.60;;;;;;;17.62;76.98;100463.23;126908;1278;107481;-78
2022/10/16 08:39:01;;;;;;;12.80;10.50;;;;;;;17.67;76.85;100469.84;126889;1278;107489;-79
2022/10/16 08:42:29;;;;;;;12.70;10.80;;;;;;;17.72;76.75;100468.30;127027;1278;107567;-80
2022/10/16 08:45:47;;;;;;;13.70;10.80;;;;;;;17.76;76.39;100470.32;127129;1272;107566;-80
2022/10/16 08:48:55;;;;;;;21.00;15.80;;;;;;;17.80;76.10;100470.02;126893;1279;107343;-79
2022/10/16 08:52:01;;;;;;;15.10;12.00;;;;;;;17.80;76.26;100465.84;126920;1278;107714;-77
2022/10/16 08:55:07;;;;;;;14.20;11.30;;;;;;;17.83;76.07;100475.34;127008;1279;107580;-77
2022/10/16 08:58:16;;;;;;;17.10;11.80;;;;;;;17.87;76.19;100479.00;126965;1278;107413;-79
2022/10/16 09:01:24;;;;;;;14.60;10.40;;;;;;;17.93;75.91;100480.84;127221;1280;107530;-82
2022/10/16 09:04:55;;;;;;;11.70;10.30;;;;;;;18.00;75.82;100476.10;127202;1278;107903;-77
2022/10/16 09:08:10;;;;;;;12.90;10.20;;;;;;;18.07;75.99;100467.44;127167;1279;108001;-80
2022/10/16 09:11:24;;;;;;;14.50;11.50;;;;;;;18.16;75.53;100469.41;127112;1286;107621;-74
2022/10/16 09:14:41;;;;;;;13.80;10.80;;;;;;;18.21;75.32;100468.73;126929;1283;107372;-74
2022/10/16 09:17:54;;;;;;;14.40;10.60;;;;;;;18.28;75.27;100470.58;126912;1286;106748;-75
2022/10/16 09:21:08;;;;;;;15.80;11.50;;;;;;;18.34;75.22;100468.49;127074;1279;107704;-78
2022/10/16 09:24:17;;;;;;;12.80;10.00;;;;;;;18.35;75.04;100474.35;126951;1279;107527;-81
2022/10/16 09:27:22;;;;;;;13.90;10.50;;;;;;;18.37;75.22;100471.04;126864;1279;109678;-78
2022/10/16 09:30:30;;;;;;;11.40;10.00;;;;;;;18.37;74.90;100468.63;126867;1278;107345;-79
2022/10/16 09:33:40;;;;;;;31.40;18.30;;;;;;;18.37;74.78;100473.98;126857;1278;107539;-79
2022/10/16 09:36:47;;;;;;;15.60;12.20;;;;;;;18.45;74.81;100476.99;126893;1286;107349;-78
2022/10/16 09:39:54;;;;;;;16.80;10.60;;;;;;;18.61;74.85;100471.16;126978;1286;107487;-78
2022/10/16 09:43:07;;;;;;;19.50;13.50;;;;;;;18.74;74.48;100463.45;127110;1284;108624;-79
2022/10/16 09:46:27;;;;;;;13.10;11.00;;;;;;;18.87;74.14;100457.16;127064;1280;107429;-80
2022/10/16 09:49:34;;;;;;;12.00;10.70;;;;;;;18.98;73.99;100460.20;126939;1279;107530;-79
2022/10/16 09:52:40;;;;;;;12.30;10.80;;;;;;;19.09;73.90;100468.84;127191;1271;107486;-76
2022/10/16 09:55:52;;;;;;;12.80;10.30;;;;;;;19.14;73.80;100466.90;126937;1278;107519;-77
2022/10/16 09:59:00;;;;;;;14.20;10.60;;;;;;;19.17;73.45;100469.91;126958;1278;107527;-77
2022/10/16 10:02:15;;;;;;;11.60;9.80;;;;;;;19.18;73.48;100476.81;127008;1287;106399;-77
2022/10/16 10:05:23;;;;;;;14.60;10.20;;;;;;;19.20;73.61;100472.41;127047;1278;106606;-77
2022/10/16 10:08:29;;;;;;;11.10;9.90;;;;;;;19.20;73.26;100473.95;127002;1272;106048;-77
2022/10/16 10:11:47;;;;;;;12.70;10.10;;;;;;;19.18;73.22;100471.36;126941;1272;107378;-79
2022/10/16 10:14:55;;;;;;;14.10;9.80;;;;;;;19.19;73.11;100465.08;126902;1272;107552;-77
2022/10/16 10:18:03;;;;;;;10.20;8.50;;;;;;;19.18;73.21;100465.03;126675;1285;108023;-77
2022/10/16 10:21:18;;;;;;;11.60;9.00;;;;;;;19.20;73.02;100463.52;126985;1271;108799;-78
2022/10/16 10:24:23;;;;;;;11.30;9.40;;;;;;;19.21;72.55;100466.30;126961;1279;106656;-75
2022/10/16 10:27:40;;;;;;;11.30;9.40;;;;;;;19.24;72.55;100469.91;127223;1279;107525;-76
2022/10/16 10:30:56;;;;;;;12.60;10.30;;;;;;;19.29;72.62;100470.94;126964;1279;106742;-76
2022/10/16 10:34:12;;;;;;;14.00;10.30;;;;;;;19.36;72.61;100466.20;126987;1279;107607;-74
2022/10/16 10:37:31;;;;;;;10.70;9.60;;;;;;;19.40;72.54;100460.76;126756;1286;454782;-77
2022/10/16 10:40:48;;;;;;;12.60;10.10;;;;;;;19.41;72.14;100456.60;126926;1279;108302;-75
2022/10/16 10:44:04;;;;;;;10.80;9.20;;;;;;;19.37;72.04;100457.25;126942;1279;107679;-77
2022/10/16 10:47:20;;;;;;;11.00;9.40;;;;;;;19.40;72.28;100463.45;126814;1278;108843;-77
2022/10/16 10:50:32;;;;;;;12.00;10.40;;;;;;;19.46;72.08;100458.09;127029;1272;107082;-80
2022/10/16 10:53:51;;;;;;;10.50;9.00;;;;;;;19.51;71.81;100455.40;126989;1286;107500;-80
2022/10/16 10:57:04;;;;;;;13.60;9.50;;;;;;;19.53;71.62;100459.55;126905;1279;106360;-78
2022/10/16 11:00:21;;;;;;;12.30;8.80;;;;;;;19.54;71.64;100469.09;126854;1279;107497;-75
2022/10/16 11:03:54;;;;;;;11.60;9.90;;;;;;;19.56;71.41;100473.47;126864;1286;107460;-77
2022/10/16 11:07:05;;;;;;;11.90;9.50;;;;;;;19.55;71.45;100463.98;126927;1272;107366;-77
2022/10/16 11:10:18;;;;;;;12.30;9.30;;;;;;;19.60;71.58;100463.64;127776;1278;107552;-77
2022/10/16 11:13:33;;;;;;;11.40;9.30;;;;;;;19.64;71.24;100462.19;127313;1286;107655;-77
2022/10/16 11:16:44;;;;;;;11.30;8.80;;;;;;;19.63;71.32;100463.56;127877;1279;107539;-78
2022/10/16 11:19:55;;;;;;;11.70;8.70;;;;;;;19.66;71.20;100458.48;127171;1286;107461;-79
2022/10/16 11:23:10;;;;;;;9.70;8.40;;;;;;;19.72;70.61;100447.59;127201;1272;107525;-78
2022/10/16 11:26:20;;;;;;;13.50;8.90;;;;;;;19.80;70.77;100441.84;127238;1279;107174;-77
2022/10/16 11:29:31;;;;;;;8.70;7.80;;;;;;;19.94;70.93;100446.80;127175;1279;107384;-78
2022/10/16 11:32:49;;;;;;;8.80;7.60;;;;;;;20.03;70.74;100447.74;126962;1279;107541;-77
2022/10/16 11:36:00;;;;;;;9.30;7.70;;;;;;;20.11;70.75;100448.06;126910;1272;106407;-76
2022/10/16 11:39:19;;;;;;;8.60;7.60;;;;;;;20.13;70.36;100449.56;126877;1278;107545;-77
2022/10/16 11:42:31;;;;;;;8.80;7.40;;;;;;;20.14;70.16;100437.39;126769;1279;107516;-77
2022/10/16 11:45:39;;;;;;;;;;;;;;;20.16;70.23;100444.30;126954;1279;107401;-77
2022/10/16 11:48:50;;;;;;;7.80;6.60;;;;;;;20.14;69.78;100444.81;126886;1279;107284;-77
2022/10/16 11:52:04;;;;;;;7.90;6.80;;;;;;;20.03;69.93;100447.86;127064;1285;107621;-77
2022/10/16 11:55:18;;;;;;;7.90;6.60;;;;;;;19.92;69.77;100450.63;126945;1285;106409;-77
2022/10/16 11:58:30;;;;;;;7.90;6.80;;;;;;;19.86;70.34;100451.48;126892;1279;107480;-77
2022/10/16 12:01:42;;;;;;;8.30;6.80;;;;;;;19.84;70.36;100451.76;126901;1279;107535;-77
2022/10/16 12:04:58;;;;;;;9.10;6.20;;;;;;;19.82;70.27;100450.27;126902;1286;105562;-77
2022/10/16 12:08:11;;;;;;;7.30;6.20;;;;;;;19.78;70.22;100452.77;126909;1278;107407;-77
2022/10/16 12:11:34;;;;;;;7.90;6.20;;;;;;;19.78;69.92;100458.02;126755;1272;106149;-78
2022/10/16 12:14:41;;;;;;;8.40;6.20;;;;;;;19.81;70.05;100464.92;126878;1285;108014;-78
2022/10/16 12:17:47;;;;;;;8.40;6.20;;;;;;;19.80;69.85;100462.39;127218;1278;106969;-76
2022/10/16 12:21:05;;;;;;;7.90;6.70;;;;;;;19.82;70.17;100455.89;127007;1284;107333;-77
2022/10/16 12:24:28;;;;;;;6.00;5.40;;;;;;;19.88;70.24;100460.10;127014;1278;107532;-72
2022/10/16 12:27:35;;;;;;;8.10;5.30;;;;;;;19.92;70.12;100456.38;127667;1278;107492;-78
2022/10/16 12:30:41;;;;;;;6.80;5.40;;;;;;;19.95;70.11;100460.39;126995;1289;107530;-75
2022/10/16 12:33:58;;;;;;;6.80;5.90;;;;;;;20.01;70.17;100465.63;126865;1281;107532;-75
2022/10/16 12:37:15;;;;;;;6.20;5.60;;;;;;;20.11;70.13;100465.36;127091;1279;107540;-80
2022/10/16 12:40:30;;;;;;;5.90;5.30;;;;;;;20.18;69.86;100466.39;127162;1278;107516;-77
2022/10/16 12:43:43;;;;;;;5.70;4.80;;;;;;;20.19;69.67;100465.61;126991;1279;107616;-76
2022/10/16 12:46:50;;;;;;;5.40;4.70;;;;;;;20.20;69.94;100463.86;127273;1286;107517;-76
2022/10/16 12:49:57;;;;;;;5.70;5.10;;;;;;;20.21;69.69;100468.55;127054;1279;107370;-77
2022/10/16 12:53:04;;;;;;;8.20;5.20;;;;;;;20.20;69.71;100468.67;126929;1278;107565;-79
2022/10/16 12:56:21;;;;;;;6.10;5.00;;;;;;;20.19;69.87;100469.89;127215;1289;107427;-82
2022/10/16 12:59:40;;;;;;;6.40;5.60;;;;;;;20.19;69.92;100468.23;127260;1279;107662;-82
2022/10/16 13:03:23;;;;;;;5.50;4.90;;;;;;;20.20;69.87;100471.23;127128;1286;107684;-81
2022/10/16 13:06:36;;;;;;;7.20;5.00;;;;;;;20.19;70.00;100470.60;127142;1279;107521;-80
2022/10/16 13:09:58;;;;;;;6.90;5.20;;;;;;;20.17;70.03;100480.05;127269;1272;107447;-80
2022/10/16 13:13:21;;;;;;;6.90;5.80;;;;;;;20.14;70.02;100487.44;126863;1279;107387;-79
2022/10/16 13:16:38;;;;;;;5.30;4.50;;;;;;;20.09;69.99;100486.63;126876;1279;105661;-80
2022/10/16 13:19:51;;;;;;;6.10;4.80;;;;;;;20.07;70.00;100487.33;127225;1272;107819;-79
2022/10/16 13:23:07;;;;;;;8.20;5.40;;;;;;;20.06;70.12;100486.00;127221;1279;107561;-79
2022/10/16 13:26:24;;;;;;;6.10;5.30;;;;;;;20.06;70.07;100488.88;127077;1272;107335;-80
2022/10/16 13:29:34;;;;;;;7.10;5.20;;;;;;;20.04;70.14;100488.98;126925;1279;106016;-79
2022/10/16 13:32:41;;;;;;;6.30;5.20;;;;;;;19.99;70.18;100483.13;126972;1281;106406;-79
2022/10/16 13:35:54;;;;;;;8.30;5.30;;;;;;;19.92;70.19;100479.84;126725;1282;107604;-78
2022/10/16 13:39:12;;;;;;;6.80;5.30;;;;;;;19.85;70.29;100483.55;126854;1279;107373;-78
2022/10/16 13:42:24;;;;;;;6.80;5.40;;;;;;;19.79;70.30;100486.21;126913;1279;107350;-75
2022/10/16 13:45:29;;;;;;;6.10;5.50;;;;;;;19.74;70.51;100484.35;127356;1278;107523;-75
2022/10/16 13:48:36;;;;;;;7.70;5.30;;;;;;;19.69;70.49;100480.89;126825;1287;107640;-80
2022/10/16 13:51:41;;;;;;;6.50;4.30;;;;;;;19.65;70.56;100479.27;126981;1288;107335;-80
2022/10/16 13:54:47;;;;;;;6.80;5.70;;;;;;;19.67;70.44;100490.17;127191;1289;107221;-77
2022/10/16 13:57:52;;;;;;;5.50;4.90;;;;;;;19.71;70.56;100492.31;127128;1289;107336;-81
2022/10/16 14:01:01;;;;;;;5.70;5.10;;;;;;;19.76;70.48;100499.05;127211;1284;107283;-81
2022/10/16 14:04:10;;;;;;;6.30;5.20;;;;;;;19.82;70.50;100499.88;127208;1278;107378;-81
2022/10/16 14:07:24;;;;;;;6.80;5.70;;;;;;;19.86;70.39;100500.63;126922;1288;107349;-78